Huvudsida
METAR-TAF:

METAR-TAF

Flygplatser :

Kärrdals flygplats

Kärrdal, Estland

latitud: 58-59N, longitud: 022-49E, höjd: 5 m

Aktuellt väderrapport

Denna rapport gjordes för 40 minuter sedan, klockan 12:20 UTC
Vind 10 kt från nord/nordväst
Temperatur 21°C
Fuktighet 60%
Tryck 1017 hPa
Sikt 10 km eller mer
Inga moln under 1 500 m eller inga cumulonimbus

METAR: EEKA 241220Z 33010KT CAVOK 21/13 Q1017

Tid: 16:00 (13:00 UTC)

Väderprognos

Denna rapport gjordes för 1 timme och 0 minuter sedan, klockan 12:00 UTC
Prognos gäller från 24 kl. 13 UTC till 24 kl. 19 UTC
Vind 8 kt från nord/nordväst
Sikt 10 km eller mer
Spridda moln på en höjd av 4000 ft

TAF: EEKA 241200Z 2413/2419 34008KT 9999 SCT040

Aktuella väderrapporter och prognoser från 4000 flygplatser (METAR- och TAF-rapporter).

De tillgängliga stationerna syns som gula och röda prickar på kartan.

För musen över prickarna för att se namnen på stationerna.

Klicka sedan för att få väderrapporter och prognoser.

För att ändra kartan: Klicka på de gröna knapparna med ett svart kors på för att zooma in; den gröna knappen med ett streck på för att zooma ut; eller på de gröna pilarna för angränsande kartor.


METAR-TAF: